Time;durP1;ratioP1;P1;durP2;ratioP2;P2;SDS_P1;SDS_P2;PMS_P1;PMS_P2;Temp;Humidity;BMP_temperature;BMP_pressure;BME280_temperature;BME280_humidity;BME280_pressure;Samples;Min_cycle;Max_cycle;Signal;HPM_P1;HPM_P2
2021/12/25 00:01:52;;;;;;;;;39.50;37.75;;;;;10.59;86.80;99702.03;5058884;28;45321;-76
2021/12/25 00:04:18;;;;;;;;;45.75;38.25;;;;;10.42;87.32;99681.16;5058835;28;45417;-76
2021/12/25 00:06:43;;;;;;;;;45.25;39.75;;;;;10.51;86.57;99695.97;5058185;28;45826;-75
2021/12/25 00:09:09;;;;;;;;;45.75;38.75;;;;;10.51;86.97;99701.22;5058269;28;45421;-75
2021/12/25 00:11:34;;;;;;;;;44.50;38.25;;;;;10.39;86.96;99680.28;5058605;28;45362;-75
2021/12/25 00:14:00;;;;;;;;;46.00;37.00;;;;;10.32;87.82;99674.19;5058416;28;45410;-75
2021/12/25 00:16:25;;;;;;;;;45.75;38.75;;;;;10.51;87.89;99695.97;5058038;28;45244;-75
2021/12/25 00:18:51;;;;;;;;;44.00;38.50;;;;;10.47;87.26;99692.50;5058314;28;45411;-75
2021/12/25 00:21:16;;;;;;;;;41.75;36.00;;;;;10.42;87.21;99686.41;5058461;28;45212;-75
2021/12/25 00:23:41;;;;;;;;;43.50;38.50;;;;;10.45;87.87;99682.88;5058516;28;45346;-75
2021/12/25 00:26:12;;;;;;;;;42.50;37.75;;;;;10.46;86.88;99674.09;5039712;28;46488;-75
2021/12/25 00:31:25;;;;;;;;;29.50;28.75;;;;;10.55;86.95;99687.16;5058234;28;45220;-75
2021/12/25 00:33:57;;;;;;;;;39.00;35.75;;;;;10.52;87.18;99676.66;5058404;28;45219;-75
2021/12/25 00:36:23;;;;;;;;;39.00;35.25;;;;;10.57;87.30;99677.47;5023963;28;46744;-75
2021/12/25 00:38:51;;;;;;;;;33.25;30.75;;;;;10.41;86.66;99641.66;5057935;28;45267;-75
2021/12/25 00:41:20;;;;;;;;;39.50;35.25;;;;;10.58;86.54;99671.31;5058253;28;45242;-75
2021/12/25 00:43:46;;;;;;;;;37.75;35.25;;;;;10.56;86.99;99663.44;5057571;28;45428;-75
2021/12/25 00:46:12;;;;;;;;;36.50;35.00;;;;;10.49;86.79;99637.19;5057814;28;45298;-75
2021/12/25 00:48:38;;;;;;;;;35.00;33.50;;;;;10.51;86.75;99651.19;5057841;28;45452;-74
2021/12/25 00:51:05;;;;;;;;;37.25;35.25;;;;;10.56;86.25;99646.78;5057987;28;45294;-75
2021/12/25 00:53:31;;;;;;;;;33.75;33.50;;;;;10.50;86.51;99644.19;5057961;28;45405;-75
2021/12/25 00:55:57;;;;;;;;;35.00;31.50;;;;;10.46;86.07;99637.22;5057701;28;46226;-74
2021/12/25 00:58:23;;;;;;;;;34.00;32.00;;;;;10.41;86.09;99634.63;5057898;28;45330;-74
2021/12/25 01:00:48;;;;;;;;;37.00;31.00;;;;;10.48;86.54;99654.75;5057720;28;45228;-74
2021/12/25 01:03:14;;;;;;;;;25.00;24.50;;;;;10.37;86.11;99638.19;5057978;28;45234;-75
2021/12/25 01:05:39;;;;;;;;;27.00;27.00;;;;;10.47;85.74;99657.41;5057406;28;45903;-75
2021/12/25 01:08:06;;;;;;;;;27.50;26.50;;;;;10.52;85.56;99671.41;5057542;28;45328;-75
2021/12/25 01:10:33;;;;;;;;;35.00;28.00;;;;;10.52;85.46;99674.03;5057560;28;45387;-74
2021/12/25 01:13:16;;;;;;;;;29.75;27.75;;;;;10.47;86.64;99662.66;5039719;28;45598;-75
2021/12/25 01:37:23;;;;;;;;;35.00;32.50;;;;;10.13;87.31;99677.81;5057205;28;45995;-75
2021/12/25 01:40:12;;;;;;;;;35.00;34.50;;;;;10.04;87.16;99684.03;5057094;28;45306;-74
2021/12/25 01:48:26;;;;;;;;;38.50;31.50;;;;;9.99;87.84;99693.72;5057425;28;45867;-75
2021/12/25 01:50:54;;;;;;;;;27.75;25.00;;;;;10.00;87.97;99684.94;5057378;28;45418;-76
2021/12/25 01:53:20;;;;;;;;;32.00;27.50;;;;;10.05;87.57;99687.53;5057210;28;45208;-75
2021/12/25 01:55:45;;;;;;;;;27.25;25.75;;;;;10.05;87.64;99687.53;5059532;28;45377;-74
2021/12/25 01:58:12;;;;;;;;;30.25;27.75;;;;;10.11;87.44;99693.63;5060478;28;46436;-74
2021/12/25 02:00:42;;;;;;;;;27.00;25.25;;;;;10.10;87.37;99698.91;5060244;28;45352;-74
2021/12/25 02:03:10;;;;;;;;;38.00;27.00;;;;;9.99;87.99;99685.84;5060383;28;45205;-74
2021/12/25 02:05:37;;;;;;;;;29.00;26.50;;;;;10.09;87.21;99702.44;5060696;28;45326;-75
2021/12/25 02:08:04;;;;;;;;;30.50;27.50;;;;;10.08;87.31;99698.94;5060246;28;47123;-75
2021/12/25 02:10:29;;;;;;;;;25.75;22.75;;;;;10.08;87.54;99698.94;5042205;28;45294;-75
2021/12/25 02:12:55;;;;;;;;;35.75;32.50;;;;;9.98;87.72;99699.88;5060355;28;45336;-75
2021/12/25 02:15:23;;;;;;;;;32.50;26.50;;;;;9.98;88.19;99697.25;5060468;28;45435;-75
2021/12/25 02:20:26;;;;;;;;;26.25;23.50;;;;;9.92;87.57;99703.41;5060223;28;45423;-74
2021/12/25 02:22:59;;;;;;;;;27.25;23.25;;;;;9.76;87.82;99678.09;5060328;28;45321;-75
2021/12/25 02:25:25;;;;;;;;;28.25;26.75;;;;;9.72;88.53;99681.63;5060356;28;45197;-75
2021/12/25 02:27:50;;;;;;;;;29.25;24.75;;;;;9.85;88.25;99701.69;5060188;28;46461;-75
2021/12/25 02:30:16;;;;;;;;;26.75;23.25;;;;;9.79;87.81;99685.09;5060023;28;45342;-75
2021/12/25 02:32:45;;;;;;;;;28.25;25.75;;;;;9.66;87.80;99655.38;5059863;28;45366;-75
2021/12/25 02:35:13;;;;;;;;;30.75;26.00;;;;;9.87;88.45;99697.34;5060375;28;45211;-74
2021/12/25 02:37:40;;;;;;;;;30.50;24.00;;;;;9.87;87.78;99685.94;5059654;28;46242;-74
2021/12/25 02:40:07;;;;;;;;;30.50;29.75;;;;;9.88;87.78;99687.69;5060015;28;45225;-75
2021/12/25 02:42:34;;;;;;;;;23.25;22.50;;;;;9.98;87.88;99695.50;5060104;28;45345;-75
2021/12/25 02:45:00;;;;;;;;;28.50;26.00;;;;;10.09;87.86;99694.53;5058861;28;45330;-75
2021/12/25 02:47:29;;;;;;;;;27.50;25.75;;;;;10.10;87.76;99689.25;5059614;28;47010;-75
2021/12/25 02:49:55;;;;;;;;;30.25;27.00;;;;;10.14;87.68;99680.44;5060137;28;45286;-75
2021/12/25 02:52:20;;;;;;;;;19.00;18.50;;;;;10.23;87.64;99685.66;5059894;28;45204;-74
2021/12/25 02:54:46;;;;;;;;;25.50;24.00;;;;;10.30;86.96;99691.75;5060078;28;45429;-75
2021/12/25 02:57:12;;;;;;;;;26.00;25.25;;;;;10.32;86.64;99686.47;5059632;28;45555;-75
2021/12/25 02:59:38;;;;;;;;;31.00;25.50;;;;;10.32;86.85;99687.34;5059518;28;45356;-75
2021/12/25 03:02:10;;;;;;;;;23.75;22.00;;;;;10.37;86.62;99687.34;5059729;28;45330;-75
2021/12/25 03:04:39;;;;;;;;;27.25;26.75;;;;;10.33;85.72;99677.69;5059940;28;45249;-75
2021/12/25 03:07:05;;;;;;;;;27.75;24.50;;;;;10.45;86.77;99685.50;5058880;28;46372;-75
2021/12/25 03:09:31;;;;;;;;;27.25;23.75;;;;;10.42;86.15;99675.88;5041389;28;46097;-75
2021/12/25 03:11:57;;;;;;;;;22.50;19.75;;;;;10.51;85.86;99680.16;5059516;28;45264;-74
2021/12/25 03:15:01;;;;;;;;;23.25;21.75;;;;;10.37;85.50;99653.09;5059577;28;45278;-75
2021/12/25 03:17:11;;;;;;;;;20.75;20.75;;;;;10.50;85.62;99689.81;5056571;28;45388;-75
2021/12/25 03:19:36;;;;;;;;;25.00;23.75;;;;;10.40;85.27;99653.06;5059333;28;45385;-75
2021/12/25 03:22:04;;;;;;;;;23.50;19.50;;;;;10.57;85.40;99674.84;5041296;28;45343;-75
2021/12/25 03:24:30;;;;;;;;;18.25;15.75;;;;;10.54;85.16;99670.50;5059495;28;45983;-74
2021/12/25 03:26:57;;;;;;;;;21.50;20.75;;;;;10.63;85.17;99681.84;5059056;28;46598;-75
2021/12/25 03:29:24;;;;;;;;;24.25;22.00;;;;;10.62;84.99;99678.31;5059479;28;45433;-75
2021/12/25 03:31:51;;;;;;;;;21.00;19.00;;;;;10.62;85.04;99669.56;5058943;28;45367;-75
2021/12/25 03:34:16;;;;;;;;;19.50;17.50;;;;;10.57;84.26;99659.06;5059411;28;45409;-75
2021/12/25 03:36:42;;;;;;;;;20.50;16.75;;;;;10.51;84.40;99652.06;5058735;28;46448;-75
2021/12/25 03:39:08;;;;;;;;;23.25;20.25;;;;;10.62;84.27;99661.66;5058933;28;45365;-75
2021/12/25 03:41:33;;;;;;;;;21.50;19.00;;;;;10.63;84.42;99663.41;5058858;28;45315;-74
2021/12/25 03:44:00;;;;;;;;;22.00;19.00;;;;;10.66;84.70;99673.88;5059150;28;45245;-75
2021/12/25 03:46:29;;;;;;;;;24.75;21.00;;;;;10.72;84.79;99684.38;5058489;28;46350;-75
2021/12/25 03:59:35;;;;;;;;;9.25;8.00;;;;;10.65;84.85;99680.91;5058815;28;45161;-75
2021/12/25 04:02:07;;;;;;;;;16.75;16.75;;;;;10.70;84.80;99694.03;5058612;28;45488;-74
2021/12/25 04:04:36;;;;;;;;;14.75;13.50;;;;;10.70;84.97;99697.56;5058833;28;45216;-75
2021/12/25 04:07:20;;;;;;;;;18.00;17.50;;;;;10.72;84.27;99700.19;5040147;28;47369;-75
2021/12/25 04:09:47;;;;;;;;;20.50;19.75;;;;;10.72;84.66;99698.41;5058636;28;45235;-75
2021/12/25 04:12:13;;;;;;;;;20.75;18.00;;;;;10.67;84.27;99691.44;5058615;28;45275;-75
2021/12/25 04:14:40;;;;;;;;;25.50;17.25;;;;;10.65;84.32;99686.19;5058633;28;45488;-74
2021/12/25 04:17:06;;;;;;;;;20.00;16.25;;;;;10.77;84.73;99704.50;5057306;28;45491;-75
2021/12/25 04:19:32;;;;;;;;;20.25;17.50;;;;;10.78;84.45;99706.22;5058544;28;45284;-74
2021/12/25 04:22:15;;;;;;;;;20.50;19.75;;;;;10.68;84.76;99680.88;5058127;28;45335;-75
2021/12/25 04:24:42;;;;;;;;;23.50;20.75;;;;;10.75;84.63;99685.19;5058569;28;45311;-75
2021/12/25 04:27:12;;;;;;;;;20.25;19.00;;;;;10.76;84.23;99693.97;5040173;28;46134;-75
2021/12/25 04:29:47;;;;;;;;;24.00;23.50;;;;;10.73;84.41;99678.22;5040016;28;45339;-75
2021/12/25 05:04:40;;;;;;;;;26.75;22.25;;;;;10.79;84.84;99700.06;5057788;28;45398;-74
2021/12/25 05:07:06;;;;;;;;;29.75;20.25;;;;;10.79;84.87;99692.19;5058120;28;45450;-74
2021/12/25 05:09:31;;;;;;;;;23.75;20.25;;;;;10.77;85.23;99691.31;5057492;28;46148;-74
2021/12/25 05:11:57;;;;;;;;;21.25;20.00;;;;;10.83;85.11;99703.56;5057375;28;45259;-74
2021/12/25 05:14:22;;;;;;;;;21.75;21.50;;;;;10.81;84.63;99708.88;5057571;28;45357;-74
2021/12/25 05:16:48;;;;;;;;;24.25;20.50;;;;;10.79;85.24;99707.97;5057677;28;45282;-74
2021/12/25 05:19:13;;;;;;;;;27.50;24.00;;;;;10.82;84.93;99715.88;5057580;28;45375;-74
2021/12/25 05:21:39;;;;;;;;;27.00;21.00;;;;;10.81;85.26;99711.50;5057449;28;45438;-74
2021/12/25 05:24:05;;;;;;;;;19.00;18.25;;;;;10.75;85.87;99705.41;5057568;28;45394;-74
2021/12/25 05:26:32;;;;;;;;;17.50;17.25;;;;;10.78;85.72;99708.88;5057464;28;45406;-75
2021/12/25 05:29:00;;;;;;;;;21.25;17.75;;;;;10.70;85.77;99694.03;5057107;28;46216;-75
2021/12/25 05:31:31;;;;;;;;;25.25;21.00;;;;;10.79;85.39;99707.97;5039357;28;46106;-75
2021/12/25 05:33:57;;;;;;;;;17.00;14.75;;;;;10.78;85.34;99708.88;5057528;28;45338;-75
2021/12/25 05:36:24;;;;;;;;;19.50;16.00;;;;;10.77;85.78;99704.50;5057468;28;45308;-75
2021/12/25 05:38:50;;;;;;;;;15.50;12.75;;;;;10.78;84.82;99711.50;5038955;28;47571;-75
2021/12/25 05:41:16;;;;;;;;;14.75;13.75;;;;;10.76;85.08;99701.88;5038837;28;46022;-75
2021/12/25 05:43:41;;;;;;;;;19.75;16.50;;;;;10.71;85.74;99701.94;5057276;28;45346;-75
2021/12/25 05:46:07;;;;;;;;;21.00;16.50;;;;;10.78;85.69;99706.22;5056912;28;45308;-74
2021/12/25 05:48:35;;;;;;;;;22.25;19.00;;;;;10.71;85.94;99696.69;5057106;28;46263;-75
2021/12/25 05:51:05;;;;;;;;;18.75;18.00;;;;;10.72;85.51;99706.31;5057181;28;45508;-75
2021/12/25 05:53:31;;;;;;;;;19.50;17.25;;;;;10.76;85.58;99709.78;5039098;28;45481;-76
2021/12/25 05:55:57;;;;;;;;;14.25;14.25;;;;;10.71;85.68;99701.94;5056814;28;45358;-75
2021/12/25 05:58:22;;;;;;;;;20.25;16.25;;;;;10.72;85.25;99706.31;5038639;28;46212;-75
2021/12/25 06:00:47;;;;;;;;;22.75;19.25;;;;;10.77;85.56;99712.41;5057203;28;45288;-75
2021/12/25 06:03:13;;;;;;;;;20.50;18.00;;;;;10.73;85.95;99710.69;5057000;28;45252;-75
2021/12/25 06:05:38;;;;;;;;;17.25;16.25;;;;;10.67;85.61;99692.31;5057073;28;45283;-75
2021/12/25 06:08:04;;;;;;;;;17.50;14.00;;;;;10.75;85.74;99705.41;5057009;28;45583;-76
2021/12/25 06:10:30;;;;;;;;;19.25;17.25;;;;;10.71;85.39;99699.31;5056678;28;45410;-75
2021/12/25 06:12:58;;;;;;;;;15.25;15.00;;;;;10.68;85.46;99685.28;5057026;28;45330;-74
2021/12/25 06:15:24;;;;;;;;;15.25;15.25;;;;;10.71;85.54;99696.69;5057169;28;45268;-75
2021/12/25 06:17:50;;;;;;;;;20.25;19.00;;;;;10.86;85.80;99721.97;5056870;28;45721;-75
2021/12/25 06:20:15;;;;;;;;;21.00;17.75;;;;;10.87;85.13;99713.19;5038689;28;45265;-75
2021/12/25 06:22:41;;;;;;;;;18.75;17.75;;;;;10.81;84.94;99705.34;5056661;28;45234;-75
2021/12/25 06:25:08;;;;;;;;;16.50;16.25;;;;;10.92;84.40;99719.28;5057015;28;45465;-75
2021/12/25 06:27:34;;;;;;;;;16.25;16.25;;;;;10.93;84.89;99717.53;5056484;28;45409;-75
2021/12/25 06:30:00;;;;;;;;;16.00;16.00;;;;;10.89;84.66;99711.44;5056623;28;45351;-75
2021/12/25 06:32:26;;;;;;;;;23.75;20.25;;;;;10.90;84.70;99720.19;5056740;28;45511;-74
2021/12/25 06:34:51;;;;;;;;;24.50;18.75;;;;;10.87;85.31;99718.44;5056893;28;45365;-75
2021/12/25 06:37:18;;;;;;;;;24.00;22.00;;;;;10.90;84.77;99728.09;5056323;28;46962;-75
2021/12/25 06:39:44;;;;;;;;;21.25;16.50;;;;;10.93;84.95;99728.94;5056561;28;45200;-75
2021/12/25 06:42:09;;;;;;;;;17.75;16.75;;;;;10.90;84.77;99720.19;5059525;28;45187;-75
2021/12/25 06:44:36;;;;;;;;;18.75;18.75;;;;;10.93;84.78;99739.47;5059712;28;45374;-75
2021/12/25 06:47:02;;;;;;;;;27.25;27.25;;;;;10.92;85.97;99732.47;5059507;28;46168;-75
2021/12/25 06:49:29;;;;;;;;;21.75;21.75;;;;;10.84;85.45;99716.72;5059607;28;45324;-75
2021/12/25 06:51:55;;;;;;;;;28.00;24.50;;;;;10.84;85.57;99715.84;5041813;28;45368;-75
2021/12/25 06:54:20;;;;;;;;;30.00;26.50;;;;;10.85;85.28;99723.75;5060122;28;45335;-75
2021/12/25 06:56:48;;;;;;;;;17.00;14.75;;;;;10.92;85.45;99736.84;5059344;28;46000;-75
2021/12/25 06:59:14;;;;;;;;;22.00;21.00;;;;;10.95;85.17;99728.91;5059451;28;45212;-74
2021/12/25 07:01:41;;;;;;;;;34.50;25.75;;;;;10.94;85.23;99733.31;5059428;28;45213;-76
2021/12/25 07:04:07;;;;;;;;;16.00;15.00;;;;;10.85;85.81;99723.75;5059487;28;45586;-76
2021/12/25 07:06:36;;;;;;;;;24.25;22.25;;;;;10.81;86.35;99716.75;5059541;28;46314;-76
2021/12/25 07:09:05;;;;;;;;;23.00;20.25;;;;;10.91;86.57;99738.63;5041307;28;46113;-77
2021/12/25 07:11:31;;;;;;;;;24.00;20.50;;;;;10.91;85.79;99746.53;5059503;28;45293;-76
2021/12/25 07:13:57;;;;;;;;;29.50;25.50;;;;;10.85;86.38;99726.38;5059417;28;45287;-76
2021/12/25 07:16:22;;;;;;;;;26.50;24.50;;;;;10.84;86.02;99732.53;5041535;28;45390;-75
2021/12/25 07:18:48;;;;;;;;;22.00;19.25;;;;;10.91;85.61;99737.75;5059434;28;45358;-76
2021/12/25 07:21:13;;;;;;;;;25.75;22.50;;;;;10.94;86.70;99743.84;5041467;28;45565;-75
2021/12/25 07:23:38;;;;;;;;;26.25;24.00;;;;;10.89;85.85;99728.97;5059792;28;45338;-76
2021/12/25 07:26:05;;;;;;;;;23.50;23.50;;;;;10.90;85.41;99730.75;5059283;28;46205;-75
2021/12/25 07:28:31;;;;;;;;;18.00;18.00;;;;;10.96;84.82;99738.56;5059404;28;45345;-76
2021/12/25 07:31:00;;;;;;;;;27.75;26.50;;;;;10.95;85.15;99739.44;5059312;28;45433;-76
2021/12/25 07:33:26;;;;;;;;;28.25;23.50;;;;;10.99;85.95;99743.81;5059454;28;45406;-76
2021/12/25 07:35:52;;;;;;;;;13.25;12.50;;;;;10.96;85.34;99738.56;5059255;28;46757;-76
2021/12/25 07:38:18;;;;;;;;;28.00;23.50;;;;;10.89;84.98;99727.25;5059064;28;45502;-76
2021/12/25 07:40:44;;;;;;;;;20.00;18.50;;;;;10.94;84.52;99735.94;5059446;28;45387;-76
2021/12/25 07:43:10;;;;;;;;;32.00;26.00;;;;;10.84;85.25;99732.53;5058961;28;45291;-75
2021/12/25 07:45:35;;;;;;;;;24.75;23.50;;;;;10.91;86.01;99754.44;5059362;28;45506;-75
2021/12/25 07:48:02;;;;;;;;;33.50;32.00;;;;;10.75;86.04;99708.91;5058617;28;45279;-76
2021/12/25 07:50:32;;;;;;;;;23.50;19.75;;;;;10.94;85.57;99745.63;5059435;28;45237;-75
2021/12/25 07:52:58;;;;;;;;;27.00;23.50;;;;;10.97;86.33;99741.19;5059312;28;45338;-76
2021/12/25 07:55:25;;;;;;;;;25.00;25.00;;;;;10.96;85.99;99742.06;5058872;28;46466;-75
2021/12/25 07:57:50;;;;;;;;;27.50;26.00;;;;;10.90;85.59;99731.59;5058560;28;45290;-76
2021/12/25 08:00:17;;;;;;;;;33.00;23.25;;;;;10.96;85.47;99741.19;5058868;28;45541;-76
2021/12/25 08:02:45;;;;;;;;;20.50;19.50;;;;;10.97;85.83;99746.44;5059205;28;45148;-76
2021/12/25 08:05:11;;;;;;;;;26.75;24.00;;;;;10.80;85.52;99714.16;5040567;28;47175;-76
2021/12/25 08:07:36;;;;;;;;;29.75;24.25;;;;;10.93;85.61;99730.69;5058716;28;45177;-76
2021/12/25 08:10:20;;;;;;;;;23.75;22.25;;;;;10.73;85.43;99709.81;5058533;28;45587;-75
2021/12/25 08:12:55;;;;;;;;;24.50;18.75;;;;;10.90;85.44;99736.00;5058706;28;45214;-75
2021/12/25 08:15:26;;;;;;;;;26.75;22.75;;;;;10.89;85.42;99735.13;5058711;28;45283;-76
2021/12/25 08:17:53;;;;;;;;;24.75;23.25;;;;;10.95;85.46;99761.41;5058710;28;45322;-76
2021/12/25 08:20:18;;;;;;;;;30.75;24.50;;;;;10.89;85.28;99744.78;5058596;28;45274;-75
2021/12/25 08:22:44;;;;;;;;;22.00;21.50;;;;;10.89;85.57;99742.13;5058705;28;45410;-75
2021/12/25 08:25:11;;;;;;;;;27.00;25.00;;;;;10.88;85.57;99749.16;5058713;28;45249;-75
2021/12/25 08:27:38;;;;;;;;;25.00;21.50;;;;;10.95;84.75;99747.34;5058783;28;45277;-75
2021/12/25 08:30:08;;;;;;;;;25.50;23.50;;;;;10.96;85.48;99742.06;5058433;28;45296;-76
2021/12/25 08:32:34;;;;;;;;;29.50;27.75;;;;;11.03;85.29;99753.44;5058724;28;45406;-77
2021/12/25 08:34:59;;;;;;;;;33.25;29.00;;;;;10.99;85.03;99746.47;5058340;28;45614;-76
2021/12/25 08:37:26;;;;;;;;;23.50;20.75;;;;;11.00;85.07;99748.19;5058303;28;45416;-77
2021/12/25 08:39:53;;;;;;;;;23.50;22.50;;;;;11.02;85.18;99749.06;5058437;28;45508;-76
2021/12/25 08:42:20;;;;;;;;;25.25;22.00;;;;;10.79;85.01;99704.47;5058432;28;45409;-78
2021/12/25 08:45:05;;;;;;;;;30.75;26.25;;;;;10.99;84.24;99743.81;5058261;28;45306;-76
2021/12/25 08:47:36;;;;;;;;;23.75;21.75;;;;;11.09;84.71;99756.88;5058237;28;45444;-76
2021/12/25 08:50:08;;;;;;;;;25.25;22.75;;;;;11.06;84.77;99756.03;5058212;28;45301;-77
2021/12/25 08:52:34;;;;;;;;;28.25;22.00;;;;;11.14;84.48;99764.72;5058248;28;45474;-77
2021/12/25 08:54:59;;;;;;;;;26.00;19.00;;;;;11.02;84.64;99749.91;5058437;28;45399;-77
2021/12/25 08:57:25;;;;;;;;;21.25;18.00;;;;;10.91;84.38;99729.84;5058439;28;45378;-77
2021/12/25 08:59:52;;;;;;;;;24.25;23.50;;;;;10.96;84.42;99739.44;5058316;28;45338;-77
2021/12/25 09:02:19;;;;;;;;;26.50;26.50;;;;;11.00;84.69;99748.19;5058462;28;45422;-76
2021/12/25 09:04:47;;;;;;;;;28.50;22.75;;;;;11.09;84.76;99774.47;5057351;28;46215;-77
2021/12/25 09:07:13;;;;;;;;;21.75;20.50;;;;;11.00;84.21;99756.97;5057712;28;45208;-76
2021/12/25 09:09:39;;;;;;;;;27.50;25.25;;;;;10.88;84.13;99745.66;5057640;28;45527;-76
2021/12/25 09:12:09;;;;;;;;;24.50;20.75;;;;;11.07;84.20;99760.41;5040004;28;45501;-76
2021/12/25 09:14:36;;;;;;;;;27.50;21.25;;;;;11.17;83.44;99775.25;5039821;28;46861;-76
2021/12/25 09:17:03;;;;;;;;;16.25;16.25;;;;;11.21;83.07;99776.09;5057819;28;45314;-77
2021/12/25 09:19:28;;;;;;;;;25.00;21.00;;;;;11.13;83.12;99761.22;5057720;28;45219;-76
2021/12/25 09:21:54;;;;;;;;;27.50;21.50;;;;;11.16;83.07;99768.22;5057617;28;45236;-76
2021/12/25 09:24:20;;;;;;;;;20.50;16.75;;;;;11.13;83.46;99762.97;5057573;28;45489;-76
2021/12/25 09:26:45;;;;;;;;;22.25;20.50;;;;;11.23;82.83;99771.66;5057207;28;45216;-76
2021/12/25 09:29:10;;;;;;;;;19.75;19.00;;;;;11.21;82.89;99763.78;5057711;28;45299;-75
2021/12/25 09:31:36;;;;;;;;;23.75;18.25;;;;;11.21;82.17;99753.22;5057650;28;45485;-75
2021/12/25 09:34:02;;;;;;;;;20.25;20.25;;;;;11.21;81.88;99753.22;5057286;28;45338;-75
2021/12/25 09:36:29;;;;;;;;;19.50;19.25;;;;;11.40;82.10;99791.69;5057284;28;45441;-75
2021/12/25 09:38:54;;;;;;;;;21.25;19.00;;;;;11.34;81.96;99775.06;5057508;28;45306;-75
2021/12/25 09:41:20;;;;;;;;;24.25;20.75;;;;;11.43;81.98;99788.13;5057411;28;45311;-76
2021/12/25 09:43:48;;;;;;;;;23.50;21.75;;;;;11.48;82.62;99791.59;5057362;28;45437;-76
2021/12/25 09:46:14;;;;;;;;;25.25;20.25;;;;;11.37;81.42;99772.41;5056853;28;45371;-76
2021/12/25 09:48:39;;;;;;;;;21.25;20.00;;;;;11.50;81.51;99791.59;5056923;28;45479;-76
2021/12/25 09:51:06;;;;;;;;;20.50;19.25;;;;;11.39;81.33;99765.34;5038930;28;45502;-76
2021/12/25 09:53:32;;;;;;;;;20.50;18.50;;;;;11.55;81.72;99802.97;5057280;28;46187;-76
2021/12/25 09:55:58;;;;;;;;;18.25;16.75;;;;;11.61;81.23;99801.09;5056567;28;45500;-76
2021/12/25 09:58:25;;;;;;;;;19.50;18.00;;;;;11.61;80.70;99795.84;5056832;28;45247;-77
2021/12/25 10:00:53;;;;;;;;;25.75;21.00;;;;;11.67;80.52;99797.53;5056981;28;45595;-76
2021/12/25 10:03:19;;;;;;;;;28.00;23.50;;;;;11.67;80.16;99787.84;5056711;28;47022;-75
2021/12/25 10:05:48;;;;;;;;;22.00;20.75;;;;;11.68;81.22;99794.88;5056682;28;45235;-75
2021/12/25 10:08:17;;;;;;;;;30.25;26.25;;;;;11.68;80.30;99799.28;5056608;28;45348;-75
2021/12/25 10:10:59;;;;;;;;;20.00;17.75;;;;;11.65;80.81;99796.69;5056992;28;45174;-75
2021/12/25 10:13:28;;;;;;;;;23.50;20.25;;;;;11.74;80.91;99801.84;5056626;28;47265;-75
2021/12/25 10:15:57;;;;;;;;;20.25;18.75;;;;;11.73;80.02;99801.88;5058196;28;45287;-75
2021/12/25 10:18:34;;;;;;;;;31.50;26.25;;;;;11.80;80.25;99795.66;5060243;28;45388;-74
2021/12/25 10:21:18;;;;;;;;;20.00;19.00;;;;;11.87;79.72;99795.56;5060784;28;45346;-74
2021/12/25 10:23:44;;;;;;;;;22.75;22.75;;;;;11.92;79.43;99790.22;5041808;28;47214;-76
2021/12/25 10:26:10;;;;;;;;;23.00;20.50;;;;;11.98;79.76;99779.56;5041438;28;45353;-75
2021/12/25 10:28:39;;;;;;;;;23.75;20.25;;;;;12.03;79.13;99768.97;5060497;28;45378;-76
2021/12/25 10:31:13;;;;;;;;;21.25;19.00;;;;;12.21;78.85;99771.34;5060234;28;45283;-76
2021/12/25 10:33:49;;;;;;;;;32.00;25.25;;;;;12.50;77.93;99787.59;5042672;28;46297;-75
2021/12/25 10:36:31;;;;;;;;;22.25;20.25;;;;;12.66;77.17;99769.75;5041672;28;45253;-76
2021/12/25 10:38:58;;;;;;;;;18.00;16.75;;;;;12.81;77.05;99777.41;5060062;28;45319;-76
2021/12/25 10:41:24;;;;;;;;;24.25;23.25;;;;;12.80;75.97;99766.88;5060171;28;45405;-75
2021/12/25 10:44:08;;;;;;;;;24.00;23.00;;;;;12.87;75.65;99776.44;5059885;28;45985;-76
2021/12/25 10:46:56;;;;;;;;;23.00;20.75;;;;;12.86;75.91;99782.63;5041705;28;45266;-76
2021/12/25 10:49:25;;;;;;;;;19.75;16.00;;;;;12.72;75.84;99759.06;5059998;28;45308;-76
2021/12/25 10:51:51;;;;;;;;;19.50;18.00;;;;;12.30;75.88;99677.91;5060621;28;45468;-77
2021/12/25 10:54:18;;;;;;;;;20.00;19.00;;;;;12.90;75.94;99771.09;5059562;28;47201;-76
2021/12/25 10:56:47;;;;;;;;;23.25;20.00;;;;;12.83;75.56;99762.38;5059716;28;45375;-76
2021/12/25 10:59:18;;;;;;;;;16.00;14.00;;;;;12.83;75.31;99774.72;5059825;28;45526;-76
2021/12/25 11:01:50;;;;;;;;;21.25;21.25;;;;;12.79;75.76;99767.75;5060032;28;45481;-76
2021/12/25 11:04:36;;;;;;;;;19.00;19.00;;;;;12.66;76.35;99739.81;5059561;28;46392;-75
2021/12/25 11:07:16;;;;;;;;;20.00;16.00;;;;;12.74;75.75;99745.81;5059697;28;45354;-76
2021/12/25 11:10:04;;;;;;;;;15.00;15.00;;;;;12.81;75.27;99753.63;5059796;28;45451;-77
2021/12/25 11:12:31;;;;;;;;;19.00;17.00;;;;;12.75;75.20;99740.53;5059534;28;45484;-76
2021/12/25 11:15:19;;;;;;;;;17.75;15.50;;;;;12.83;75.47;99751.81;5059399;28;45436;-76
2021/12/25 11:17:53;;;;;;;;;19.50;18.00;;;;;12.88;75.57;99746.47;5059020;28;45370;-75
2021/12/25 11:20:37;;;;;;;;;17.50;17.50;;;;;12.79;74.88;99736.06;5059527;28;45228;-75
2021/12/25 11:23:06;;;;;;;;;19.25;16.75;;;;;12.85;74.97;99743.88;5059465;28;45347;-76
2021/12/25 11:25:35;;;;;;;;;17.25;15.50;;;;;12.70;75.06;99721.22;5059152;28;45456;-76
2021/12/25 11:28:06;;;;;;;;;16.50;12.00;;;;;12.76;75.09;99730.81;5059206;28;45348;-76
2021/12/25 11:30:34;;;;;;;;;16.00;15.00;;;;;12.62;75.26;99719.63;5059320;28;45282;-76
2021/12/25 11:33:00;;;;;;;;;18.50;16.25;;;;;12.71;75.17;99735.31;5059524;28;45491;-76
2021/12/25 11:35:26;;;;;;;;;17.25;15.00;;;;;12.70;75.71;99737.06;5040770;28;45873;-76
2021/12/25 11:37:55;;;;;;;;;17.25;14.50;;;;;12.71;75.16;99732.66;5059009;28;45308;-76
2021/12/25 11:40:24;;;;;;;;;19.50;18.00;;;;;12.72;75.49;99739.69;5059096;28;45292;-75
2021/12/25 11:42:57;;;;;;;;;18.25;17.25;;;;;12.71;75.30;99728.25;5058893;28;45440;-75
2021/12/25 11:45:29;;;;;;;;;20.25;19.75;;;;;12.63;75.54;99709.00;5059189;28;45277;-75
2021/12/25 11:47:58;;;;;;;;;15.75;15.75;;;;;12.65;75.67;99711.63;5058973;28;45241;-75
2021/12/25 11:50:33;;;;;;;;;19.50;17.75;;;;;12.84;75.76;99726.25;5059326;28;45325;-76
2021/12/25 11:53:06;;;;;;;;;16.25;15.00;;;;;12.91;75.26;99719.09;5059065;28;45435;-76
2021/12/25 11:58:36;;;;;;;;;19.00;17.50;;;;;13.07;74.60;99718.78;5058545;28;45374;-76
2021/12/25 12:01:26;;;;;;;;;15.00;15.00;;;;;13.00;74.36;99708.34;5046017;28;45366;-76
2021/12/25 12:03:56;;;;;;;;;21.00;17.50;;;;;12.87;73.76;99697.13;5058517;28;45480;-74
2021/12/25 12:06:43;;;;;;;;;23.75;16.00;;;;;12.95;74.22;99719.03;5058475;28;45299;-74
2021/12/25 12:09:16;;;;;;;;;18.25;17.00;;;;;12.83;74.39;99711.28;5058675;28;45344;-75
2021/12/25 12:11:46;;;;;;;;;18.25;17.50;;;;;12.78;75.09;99705.25;5058494;28;45444;-75
2021/12/25 12:14:16;;;;;;;;;20.00;19.25;;;;;12.88;75.17;99714.75;5058897;28;45299;-75
2021/12/25 12:16:56;;;;;;;;;23.25;18.25;;;;;12.92;75.13;99715.53;5039925;28;47611;-75
2021/12/25 12:19:35;;;;;;;;;27.00;21.50;;;;;12.94;75.20;99706.72;5058344;28;45349;-75
2021/12/25 12:25:30;;;;;;;;;23.25;20.75;;;;;12.96;74.59;99714.59;5058453;28;45310;-75
2021/12/25 12:27:59;;;;;;;;;28.00;22.50;;;;;12.94;74.28;99712.00;5058586;28;46208;-75
2021/12/25 12:30:30;;;;;;;;;16.25;15.00;;;;;12.96;74.66;99714.59;5058247;28;45447;-76
2021/12/25 12:32:56;;;;;;;;;20.25;18.75;;;;;12.92;75.19;99708.47;5058201;28;45378;-75
2021/12/25 12:35:29;;;;;;;;;22.50;21.00;;;;;12.97;74.68;99711.94;5058279;28;45376;-75
2021/12/25 12:38:23;;;;;;;;;17.25;16.25;;;;;12.96;74.47;99704.91;5057560;28;46245;-75
2021/12/25 12:41:12;;;;;;;;;26.75;22.00;;;;;13.04;74.67;99710.91;5040070;28;45395;-74
2021/12/25 12:43:50;;;;;;;;;23.25;21.50;;;;;13.05;74.45;99699.44;5057791;28;45177;-75
2021/12/25 12:46:15;;;;;;;;;25.75;19.75;;;;;12.83;74.80;99680.44;5058488;28;45251;-74